createdAt,value
2019-05-26T00:04:35.801Z,88.33
2019-05-26T00:10:40.354Z,88.73
2019-05-26T00:16:44.912Z,89.77
2019-05-26T00:22:49.497Z,89.36
2019-05-26T00:29:07.642Z,89.67
2019-05-26T00:35:12.275Z,89.64
2019-05-26T00:41:16.835Z,90.78
2019-05-26T00:47:21.478Z,91.56
2019-05-26T00:53:26.743Z,91.36
2019-05-26T00:59:31.365Z,90.61
2019-05-26T01:05:35.908Z,90.91
2019-05-26T01:11:40.466Z,92.46
2019-05-26T01:17:45.067Z,91.83
2019-05-26T01:23:49.690Z,91.07
2019-05-26T01:29:54.236Z,91.23
2019-05-26T01:35:59.141Z,90.93
2019-05-26T01:42:03.706Z,91.35
2019-05-26T01:48:09.070Z,90.81
2019-05-26T01:54:13.627Z,90.86
2019-05-26T02:00:18.884Z,90.53
2019-05-26T02:06:23.578Z,90.21
2019-05-26T02:12:28.133Z,90.32
2019-05-26T02:18:32.721Z,89.89
2019-05-26T02:24:37.313Z,90.08
2019-05-26T02:30:41.874Z,90.46
2019-05-26T02:36:46.523Z,90.56
2019-05-26T02:42:51.046Z,91.08
2019-05-26T02:48:55.602Z,91.77
2019-05-26T02:55:00.172Z,91.22
2019-05-26T03:01:04.798Z,90.98
2019-05-26T03:07:09.988Z,91.57
2019-05-26T03:13:17.150Z,91.57
2019-05-26T03:19:23.283Z,91.75
2019-05-26T03:25:29.382Z,91.45
2019-05-26T03:31:33.984Z,91.61
2019-05-26T03:37:38.745Z,91.97
2019-05-26T03:43:43.354Z,91.79
2019-05-26T03:49:48.036Z,91.99
2019-05-26T03:55:52.611Z,92.34
2019-05-26T04:01:57.896Z,90.97
2019-05-26T04:08:05.109Z,91.85
2019-05-26T04:14:08.974Z,92.78
2019-05-26T04:20:13.765Z,92.10
2019-05-26T04:26:18.318Z,91.85
2019-05-26T04:32:22.943Z,91.62
2019-05-26T04:38:27.497Z,90.56
2019-05-26T04:44:32.065Z,90.14
2019-05-26T04:50:36.630Z,89.10
2019-05-26T04:56:41.339Z,89.77
2019-05-26T05:02:45.895Z,88.31
2019-05-26T05:08:50.535Z,88.97
2019-05-26T05:14:55.286Z,88.48
2019-05-26T05:20:59.827Z,88.18
2019-05-26T05:27:04.461Z,85.86
2019-05-26T05:33:09.097Z,85.98
2019-05-26T05:39:13.653Z,85.60
2019-05-26T05:45:19.477Z,85.21
2019-05-26T05:51:24.047Z,85.08
2019-05-26T05:57:28.611Z,83.21
2019-05-26T06:03:33.162Z,81.68
2019-05-26T06:09:37.750Z,83.10
2019-05-26T06:15:42.320Z,80.66
2019-05-26T06:21:46.894Z,78.32
2019-05-26T06:27:51.720Z,77.09
2019-05-26T06:33:56.330Z,75.43
2019-05-26T06:40:01.124Z,74.22
2019-05-26T06:46:06.323Z,73.49
2019-05-26T06:52:11.008Z,70.44
2019-05-26T06:58:15.572Z,69.40
2019-05-26T07:04:20.301Z,68.77
2019-05-26T07:10:24.859Z,67.69
2019-05-26T07:16:37.952Z,65.71
2019-05-26T07:22:36.958Z,66.04
2019-05-26T07:28:41.541Z,66.91
2019-05-26T07:34:46.164Z,64.59
2019-05-26T07:40:50.812Z,61.97
2019-05-26T07:46:55.394Z,59.67
2019-05-26T07:52:59.957Z,57.30
2019-05-26T07:59:04.757Z,58.30
2019-05-26T08:05:09.832Z,57.95
2019-05-26T08:11:14.479Z,56.85
2019-05-26T08:17:19.041Z,55.19
2019-05-26T08:23:23.735Z,55.90
2019-05-26T08:29:28.442Z,55.93
2019-05-26T08:35:34.421Z,56.24
2019-05-26T08:41:39.203Z,57.62
2019-05-26T08:47:44.041Z,55.10
2019-05-26T08:53:48.633Z,54.89
2019-05-26T08:59:53.197Z,54.60
2019-05-26T09:05:57.757Z,53.96
2019-05-26T09:12:02.354Z,52.85
2019-05-26T09:18:06.995Z,50.53
2019-05-26T09:24:11.676Z,51.71
2019-05-26T09:30:17.888Z,50.86
2019-05-26T09:36:22.452Z,50.40
2019-05-26T09:42:27.187Z,47.52
2019-05-26T09:48:31.746Z,49.00
2019-05-26T09:54:36.395Z,46.40
2019-05-26T10:00:41.038Z,47.18
2019-05-26T10:06:45.627Z,46.93
2019-05-26T10:12:50.232Z,46.10
2019-05-26T10:18:54.811Z,44.99
2019-05-26T10:24:59.374Z,45.94
2019-05-26T10:31:04.090Z,45.30
2019-05-26T10:37:08.747Z,44.99
2019-05-26T10:43:13.309Z,42.91
2019-05-26T10:49:18.156Z,41.79
2019-05-26T10:55:22.791Z,40.42
2019-05-26T11:01:27.374Z,40.16
2019-05-26T11:07:32.020Z,39.25
2019-05-26T11:13:36.584Z,38.25
2019-05-26T11:19:41.148Z,37.71
2019-05-26T11:25:45.722Z,37.67
2019-05-26T11:31:50.352Z,37.31
2019-05-26T11:37:55.695Z,36.60
2019-05-26T11:44:00.261Z,35.00
2019-05-26T11:50:07.411Z,36.33
2019-05-26T11:56:12.034Z,37.66
2019-05-26T12:02:16.613Z,39.44
2019-05-26T12:08:21.190Z,40.23
2019-05-26T12:14:34.930Z,40.17
2019-05-26T12:20:32.142Z,43.71
2019-05-26T12:26:36.705Z,42.12
2019-05-26T12:32:41.354Z,43.29
2019-05-26T12:38:51.787Z,44.92
2019-05-26T12:44:56.355Z,45.26
2019-05-26T12:51:00.941Z,43.86
2019-05-26T12:57:05.650Z,45.80
2019-05-26T13:03:10.285Z,44.95
2019-05-26T13:09:15.367Z,45.96
2019-05-26T13:15:21.038Z,46.87
2019-05-26T13:21:25.617Z,48.48
2019-05-26T13:27:30.179Z,47.11
2019-05-26T13:33:34.749Z,46.70
2019-05-26T13:39:39.315Z,47.50
2019-05-26T13:45:43.888Z,46.31
2019-05-26T13:51:50.507Z,45.89
2019-05-26T13:57:54.886Z,46.99
2019-05-26T14:03:59.462Z,46.95
2019-05-26T14:10:05.542Z,45.47
2019-05-26T14:16:10.186Z,45.44
2019-05-26T14:22:14.743Z,46.31
2019-05-26T14:28:19.310Z,47.38
2019-05-26T14:34:23.882Z,46.21
2019-05-26T14:40:29.149Z,46.15
2019-05-26T14:46:33.694Z,46.17
2019-05-26T14:52:38.475Z,45.67
2019-05-26T14:58:43.044Z,44.88
2019-05-26T15:04:47.613Z,45.75
2019-05-26T15:10:52.251Z,46.41
2019-05-26T15:16:56.815Z,45.55
2019-05-26T15:23:01.396Z,45.60
2019-05-26T15:29:06.106Z,45.97
2019-05-26T15:35:11.180Z,45.74
2019-05-26T15:41:15.733Z,44.41
2019-05-26T15:47:20.296Z,45.62
2019-05-26T15:53:24.852Z,45.78
2019-05-26T15:59:29.488Z,45.83
2019-05-26T16:05:34.139Z,45.44
2019-05-26T16:11:38.703Z,45.58
2019-05-26T16:17:43.271Z,45.46
2019-05-26T16:23:47.838Z,47.79
2019-05-26T16:29:52.403Z,45.51
2019-05-26T16:35:56.973Z,45.86
2019-05-26T16:42:01.530Z,46.77
2019-05-26T16:48:06.237Z,47.83
2019-05-26T16:54:10.794Z,47.57
2019-05-26T17:00:15.719Z,47.88
2019-05-26T17:06:20.281Z,48.04
2019-05-26T17:12:24.867Z,47.55
2019-05-26T17:18:29.438Z,48.39
2019-05-26T17:24:34.002Z,49.07
2019-05-26T17:30:38.689Z,50.33
2019-05-26T17:36:43.248Z,52.21
2019-05-26T17:42:47.807Z,52.76
2019-05-26T17:48:52.377Z,51.85
2019-05-26T17:54:56.951Z,52.01
2019-05-26T18:01:01.579Z,52.00
2019-05-26T18:07:06.485Z,55.11
2019-05-26T18:13:11.048Z,55.36
2019-05-26T18:19:15.683Z,58.72
2019-05-26T18:25:20.431Z,59.56
2019-05-26T18:31:28.719Z,59.99
2019-05-26T18:37:31.559Z,58.16
2019-05-26T18:43:36.121Z,55.70
2019-05-26T18:49:40.766Z,57.28
2019-05-26T18:55:45.315Z,58.66
2019-05-26T19:01:49.891Z,58.05
2019-05-26T19:07:54.733Z,58.68
2019-05-26T19:13:59.354Z,59.72
2019-05-26T19:20:16.038Z,60.27
2019-05-26T19:26:14.107Z,60.01
2019-05-26T19:32:18.740Z,58.91
2019-05-26T19:38:23.310Z,58.39
2019-05-26T19:44:27.889Z,58.36
2019-05-26T19:50:32.579Z,57.63
2019-05-26T19:56:37.150Z,58.62
2019-05-26T20:02:41.781Z,55.81
2019-05-26T20:08:46.354Z,55.34
2019-05-26T20:14:50.915Z,55.73
2019-05-26T20:20:55.463Z,55.73
2019-05-26T20:27:00.046Z,57.39
2019-05-26T20:33:04.699Z,56.82
2019-05-26T20:39:10.424Z,56.87
2019-05-26T20:45:15.640Z,56.40
2019-05-26T20:51:20.344Z,57.88
2019-05-26T20:57:24.987Z,58.25
2019-05-26T21:03:29.614Z,56.86
2019-05-26T21:09:34.177Z,58.13
2019-05-26T21:15:38.787Z,56.35
2019-05-26T21:21:43.373Z,57.80
2019-05-26T21:27:47.958Z,57.05
2019-05-26T21:33:52.543Z,58.78
2019-05-26T21:39:57.147Z,58.97
2019-05-26T21:46:01.721Z,60.36
2019-05-26T21:52:06.698Z,60.77
2019-05-26T21:58:11.268Z,61.56
2019-05-26T22:04:15.824Z,61.68
2019-05-26T22:10:20.536Z,61.44
2019-05-26T22:16:25.180Z,61.40
2019-05-26T22:22:29.805Z,61.32
2019-05-26T22:28:34.437Z,60.96
2019-05-26T22:34:39.048Z,60.87
2019-05-26T22:40:43.613Z,60.00
2019-05-26T22:46:48.183Z,61.26
2019-05-26T22:52:52.740Z,60.68
2019-05-26T22:58:57.331Z,60.65
2019-05-26T23:05:01.898Z,61.10
2019-05-26T23:11:06.537Z,61.30
2019-05-26T23:17:11.113Z,62.34
2019-05-26T23:23:15.772Z,63.53
2019-05-26T23:29:20.325Z,61.15
2019-05-26T23:35:24.886Z,62.61
2019-05-26T23:41:29.463Z,62.01
2019-05-26T23:47:34.032Z,62.51
2019-05-26T23:53:38.594Z,62.78
2019-05-26T23:59:43.154Z,64.16
